Time;durP1;ratioP1;P1;durP2;ratioP2;P2;SDS_P1;SDS_P2;PMS_P1;PMS_P2;Temp;Humidity;BMP_temperature;BMP_pressure;BME280_temperature;BME280_humidity;BME280_pressure;Samples;Min_cycle;Max_cycle;Signal;HPM_P1;HPM_P2
2022/09/28 00:02:04;;;;;;;5.43;1.63;;;10.20;99.90;;;;;;5015964;28;20673;-63
2022/09/28 00:04:32;;;;;;;1.60;1.08;;;10.40;99.90;;;;;;5016323;28;20208;-63
2022/09/28 00:06:57;;;;;;;1.40;1.30;;;9.90;99.90;;;;;;5025231;28;20187;-62
2022/09/28 00:09:23;;;;;;;1.80;1.10;;;10.30;99.90;;;;;;5018271;28;20190;-64
2022/09/28 00:11:49;;;;;;;1.20;1.10;;;10.30;99.90;;;;;;5021345;28;20194;-63
2022/09/28 00:14:15;;;;;;;1.15;1.05;;;10.40;99.90;;;;;;5016219;28;20587;-63
2022/09/28 00:16:42;;;;;;;1.30;1.20;;;10.40;99.90;;;;;;5015611;28;20187;-63
2022/09/28 00:19:09;;;;;;;1.30;1.20;;;10.10;99.90;;;;;;5018465;28;20187;-64
2022/09/28 00:21:37;;;;;;;1.10;1.00;;;11.10;99.90;;;;;;5015868;28;20189;-64
2022/09/28 00:24:19;;;;;;;3.40;1.10;;;10.80;99.90;;;;;;5013580;28;20195;-64
2022/09/28 00:26:45;;;;;;;2.13;0.95;;;10.50;99.90;;;;;;5017336;28;20263;-63
2022/09/28 00:29:20;;;;;;;0.87;0.80;;;10.70;99.90;;;;;;5017869;28;20317;-63
2022/09/28 00:31:46;;;;;;;2.00;1.30;;;10.60;99.90;;;;;;5013822;28;20515;-63
2022/09/28 00:34:12;;;;;;;1.02;1.00;;;10.60;99.90;;;;;;5024889;28;20202;-63
2022/09/28 00:36:41;;;;;;;1.30;1.20;;;10.50;99.90;;;;;;5020789;28;20211;-63
2022/09/28 00:39:08;;;;;;;2.08;1.05;;;10.60;99.90;;;;;;5014783;28;20451;-63
2022/09/28 00:41:34;;;;;;;2.05;0.90;;;10.60;99.90;;;;;;5022431;28;20559;-62
2022/09/28 00:44:29;;;;;;;1.10;0.80;;;10.90;99.90;;;;;;5012347;28;20188;-64
2022/09/28 00:47:16;;;;;;;1.70;1.60;;;10.80;99.90;;;;;;5019898;28;20265;-63
2022/09/28 00:49:56;;;;;;;1.38;1.27;;;10.70;99.90;;;;;;5025014;28;20219;-63
2022/09/28 00:52:34;;;;;;;2.40;1.17;;;10.90;99.90;;;;;;5018329;28;20267;-63
2022/09/28 00:55:04;;;;;;;1.38;1.08;;;10.80;99.90;;;;;;5017227;28;20215;-63
2022/09/28 00:57:30;;;;;;;2.97;1.10;;;10.90;99.90;;;;;;5024170;28;20238;-63
2022/09/28 00:59:58;;;;;;;3.72;1.20;;;10.90;99.90;;;;;;5017195;28;20203;-63
2022/09/28 01:02:23;;;;;;;0.90;0.80;;;11.10;99.90;;;;;;5020070;28;20684;-63
2022/09/28 01:04:51;;;;;;;1.50;1.20;;;10.70;99.90;;;;;;5025099;28;20251;-63
2022/09/28 01:07:17;;;;;;;1.58;1.02;;;11.00;99.90;;;;;;5018200;28;20712;-64
2022/09/28 01:09:44;;;;;;;1.13;1.02;;;10.90;99.90;;;;;;5014334;28;20197;-63
2022/09/28 01:12:10;;;;;;;2.08;1.17;;;10.90;99.90;;;;;;5012051;28;20270;-63
2022/09/28 01:14:37;;;;;;;1.50;0.93;;;11.10;99.90;;;;;;5023629;28;20771;-64
2022/09/28 01:17:13;;;;;;;2.35;0.90;;;11.00;99.90;;;;;;5011783;28;20262;-64
2022/09/28 01:20:04;;;;;;;2.00;0.93;;;10.90;99.90;;;;;;5015249;28;20182;-64
2022/09/28 01:22:33;;;;;;;1.77;1.10;;;11.00;99.90;;;;;;5024260;28;20227;-63
2022/09/28 01:24:58;;;;;;;2.67;1.20;;;10.90;99.90;;;;;;5011818;28;20239;-64
2022/09/28 01:27:46;;;;;;;0.93;0.70;;;11.10;99.90;;;;;;5021603;28;20217;-63
2022/09/28 01:30:16;;;;;;;1.52;0.90;;;11.10;99.90;;;;;;5019228;28;20189;-63
2022/09/28 01:32:53;;;;;;;2.25;0.80;;;11.00;99.90;;;;;;5019717;28;20268;-64
2022/09/28 01:35:35;;;;;;;1.33;1.10;;;10.90;99.90;;;;;;5019080;28;20403;-63
2022/09/28 01:38:06;;;;;;;2.28;0.90;;;11.00;99.90;;;;;;5018859;28;20188;-63
2022/09/28 01:40:34;;;;;;;1.27;0.80;;;11.00;99.90;;;;;;5018959;28;20317;-64
2022/09/28 01:43:11;;;;;;;1.48;1.10;;;11.10;99.90;;;;;;5019901;28;20680;-63
2022/09/28 01:45:47;;;;;;;1.38;1.00;;;11.10;99.90;;;;;;5018195;28;20226;-63
2022/09/28 01:48:21;;;;;;;1.10;0.90;;;11.10;99.90;;;;;;5029760;28;20186;-64
2022/09/28 01:50:52;;;;;;;1.90;1.20;;;11.20;99.90;;;;;;5017275;28;20188;-63
2022/09/28 01:53:27;;;;;;;1.52;0.90;;;11.40;99.90;;;;;;5024483;28;20199;-63
2022/09/28 01:55:57;;;;;;;0.95;0.70;;;11.30;99.90;;;;;;5025876;28;20204;-63
2022/09/28 01:58:33;;;;;;;2.92;1.30;;;11.40;99.90;;;;;;5023513;28;20195;-63
2022/09/28 02:01:08;;;;;;;2.28;0.98;;;11.40;99.90;;;;;;5022763;28;20201;-62
2022/09/28 02:03:41;;;;;;;1.08;0.80;;;11.40;99.90;;;;;;5027315;28;20196;-63
2022/09/28 02:06:14;;;;;;;1.10;1.00;;;11.30;99.90;;;;;;5019845;28;20206;-62
2022/09/28 02:08:49;;;;;;;1.70;0.88;;;11.40;99.90;;;;;;5022264;28;20194;-63
2022/09/28 02:11:17;;;;;;;1.40;1.05;;;11.50;99.90;;;;;;5030595;28;20753;-63
2022/09/28 02:13:52;;;;;;;3.97;1.70;;;11.60;99.90;;;;;;5017844;28;20587;-63
2022/09/28 02:16:41;;;;;;;2.85;1.00;;;11.20;99.90;;;;;;5018535;28;20220;-63
2022/09/28 02:19:21;;;;;;;2.13;1.23;;;11.40;99.90;;;;;;5019989;28;20185;-63
2022/09/28 02:22:03;;;;;;;2.03;1.20;;;11.80;99.90;;;;;;5016535;28;20198;-64
2022/09/28 02:24:58;;;;;;;3.30;1.17;;;11.30;99.90;;;;;;5023326;28;20217;-64
2022/09/28 02:27:35;;;;;;;2.17;1.13;;;11.50;99.90;;;;;;5018253;28;20187;-64
2022/09/28 02:30:02;;;;;;;2.47;1.20;;;11.50;99.90;;;;;;5020042;28;20267;-64
2022/09/28 02:32:31;;;;;;;3.38;1.20;;;11.50;99.90;;;;;;5015783;28;20197;-62
2022/09/28 02:34:58;;;;;;;3.58;1.67;;;11.80;99.90;;;;;;5024225;28;20220;-64
2022/09/28 02:37:24;;;;;;;2.78;1.40;;;11.70;99.90;;;;;;5018654;28;20189;-63
2022/09/28 02:39:50;;;;;;;3.22;1.25;;;11.70;99.90;;;;;;5016462;28;20193;-63
2022/09/28 02:42:41;;;;;;;2.77;1.67;;;11.80;99.90;;;;;;5020427;28;20558;-63
2022/09/28 02:45:16;;;;;;;3.00;1.10;;;11.60;99.90;;;;;;5018062;28;20227;-63
2022/09/28 02:47:58;;;;;;;2.40;1.30;;;11.60;99.90;;;;;;5018942;28;20245;-62
2022/09/28 02:50:23;;;;;;;1.48;1.20;;;11.70;99.90;;;;;;5023018;28;20231;-64
2022/09/28 02:53:11;;;;;;;3.40;1.40;;;11.70;99.90;;;;;;5024697;28;20186;-64
2022/09/28 02:55:39;;;;;;;1.83;0.90;;;11.60;99.90;;;;;;5020071;28;20213;-63
2022/09/28 02:58:29;;;;;;;2.05;1.20;;;11.60;99.90;;;;;;5014232;28;20665;-63
2022/09/28 03:01:13;;;;;;;3.00;1.15;;;11.60;99.90;;;;;;5023343;28;20693;-63
2022/09/28 03:03:48;;;;;;;2.70;1.10;;;11.70;99.90;;;;;;5017370;28;20196;-64
2022/09/28 03:06:25;;;;;;;1.88;1.27;;;11.70;99.90;;;;;;5024799;28;20211;-64
2022/09/28 03:09:03;;;;;;;2.65;1.52;;;11.70;99.90;;;;;;5026066;28;20251;-64
2022/09/28 03:11:46;;;;;;;3.25;1.27;;;11.70;99.90;;;;;;5030140;28;20188;-64
2022/09/28 03:14:13;;;;;;;1.35;1.10;;;11.50;99.90;;;;;;5022815;28;20255;-63
2022/09/28 03:16:43;;;;;;;3.55;1.20;;;11.80;99.90;;;;;;5022277;28;20189;-63
2022/09/28 03:19:13;;;;;;;3.50;1.10;;;11.60;99.90;;;;;;5025921;28;20771;-62
2022/09/28 03:21:40;;;;;;;2.25;1.10;;;11.80;99.90;;;;;;5021336;28;20206;-63
2022/09/28 03:24:06;;;;;;;2.22;1.17;;;11.90;99.90;;;;;;5020160;28;20185;-63
2022/09/28 03:26:32;;;;;;;2.90;1.37;;;11.70;99.90;;;;;;5021469;28;20212;-63
2022/09/28 03:28:57;;;;;;;1.35;1.13;;;11.80;99.90;;;;;;5023146;28;20471;-63
2022/09/28 03:31:23;;;;;;;3.27;1.00;;;11.60;99.90;;;;;;5023869;28;20665;-63
2022/09/28 03:33:50;;;;;;;2.43;1.27;;;11.90;99.90;;;;;;5030402;28;20271;-62
2022/09/28 03:36:16;;;;;;;2.58;1.23;;;11.60;99.90;;;;;;5032237;28;20277;-63
2022/09/28 03:38:42;;;;;;;1.80;1.10;;;11.60;99.90;;;;;;5032169;28;20667;-63
2022/09/28 03:41:08;;;;;;;1.57;1.10;;;11.60;99.90;;;;;;5030168;28;20180;-63
2022/09/28 03:43:34;;;;;;;2.75;1.40;;;11.60;99.90;;;;;;5021681;28;20183;-63
2022/09/28 03:46:00;;;;;;;2.37;1.47;;;11.60;99.90;;;;;;5024344;28;20235;-63
2022/09/28 03:48:31;;;;;;;2.13;1.02;;;11.60;99.90;;;;;;5037532;28;20181;-63
2022/09/28 03:51:00;;;;;;;1.52;1.20;;;11.40;99.90;;;;;;5020443;28;20226;-63
2022/09/28 03:53:27;;;;;;;4.45;1.25;;;11.60;99.90;;;;;;5018583;28;20687;-64
2022/09/28 03:55:53;;;;;;;3.20;1.30;;;11.60;99.90;;;;;;5020807;28;20278;-63
2022/09/28 03:58:20;;;;;;;2.07;1.27;;;11.70;99.90;;;;;;5022950;28;21005;-63
2022/09/28 04:00:46;;;;;;;2.58;2.20;;;11.60;99.90;;;;;;5021042;28;20485;-62
2022/09/28 04:03:12;;;;;;;4.63;2.30;;;11.60;99.90;;;;;;5015920;28;20284;-64
2022/09/28 04:05:38;;;;;;;2.43;1.37;;;11.70;99.90;;;;;;5019927;28;20323;-64
2022/09/28 04:08:04;;;;;;;2.90;1.50;;;11.60;99.90;;;;;;5021674;28;20185;-62
2022/09/28 04:10:29;;;;;;;2.70;1.57;;;11.50;99.90;;;;;;5023331;28;20220;-63
2022/09/28 04:12:56;;;;;;;2.07;1.27;;;11.80;99.90;;;;;;5028106;28;20263;-63
2022/09/28 04:15:25;;;;;;;3.10;1.52;;;11.60;99.90;;;;;;5026230;28;20626;-63
2022/09/28 04:17:51;;;;;;;2.80;1.60;;;11.40;99.90;;;;;;5023740;28;20532;-61
2022/09/28 04:20:17;;;;;;;2.20;1.65;;;11.50;99.90;;;;;;5018587;28;20195;-63
2022/09/28 04:22:43;;;;;;;2.40;1.20;;;11.40;99.90;;;;;;5024086;28;20188;-62
2022/09/28 04:25:09;;;;;;;2.92;1.75;;;11.40;99.90;;;;;;5011737;28;20214;-63
2022/09/28 04:30:19;;;;;;;3.35;1.85;;;11.40;99.90;;;;;;5015581;28;20441;-63
2022/09/28 04:32:46;;;;;;;2.50;2.07;;;11.40;99.90;;;;;;5021407;28;20180;-63
2022/09/28 04:35:12;;;;;;;2.65;1.80;;;11.40;99.90;;;;;;5025204;28;20211;-63
2022/09/28 04:37:37;;;;;;;3.73;1.17;;;11.10;99.90;;;;;;5016379;28;20176;-63
2022/09/28 04:40:03;;;;;;;1.70;1.03;;;11.30;99.90;;;;;;5018520;28;20271;-63
2022/09/28 04:42:29;;;;;;;1.98;1.10;;;11.10;99.90;;;;;;5018030;28;20206;-64
2022/09/28 04:44:56;;;;;;;3.80;1.00;;;11.00;99.90;;;;;;5032661;28;20239;-64
2022/09/28 04:47:22;;;;;;;3.20;2.80;;;11.30;99.90;;;;;;5016146;28;20192;-63
2022/09/28 04:49:47;;;;;;;1.67;1.40;;;11.10;99.90;;;;;;5024665;28;20663;-63
2022/09/28 04:52:13;;;;;;;1.93;1.13;;;11.20;99.90;;;;;;5017360;28;20192;-63
2022/09/28 04:54:40;;;;;;;2.37;1.50;;;10.90;99.90;;;;;;5021729;28;21370;-63
2022/09/28 04:57:05;;;;;;;2.33;1.20;;;11.10;99.90;;;;;;5015715;28;20180;-63
2022/09/28 04:59:32;;;;;;;2.10;1.40;;;11.40;99.90;;;;;;5016687;28;20676;-63
2022/09/28 05:01:57;;;;;;;1.83;1.50;;;11.20;99.90;;;;;;5014483;28;20221;-64
2022/09/28 05:04:23;;;;;;;2.00;1.27;;;11.40;99.90;;;;;;5015632;28;20215;-63
2022/09/28 05:06:49;;;;;;;3.20;1.17;;;11.30;99.90;;;;;;5015893;28;20188;-63
2022/09/28 05:09:15;;;;;;;1.63;1.20;;;11.00;99.90;;;;;;5013641;28;20185;-70
2022/09/28 05:11:41;;;;;;;2.03;0.87;;;11.00;99.90;;;;;;5024930;28;20424;-71
2022/09/28 05:14:06;;;;;;;1.50;1.37;;;11.00;99.90;;;;;;5019969;28;20216;-67
2022/09/28 05:16:32;;;;;;;1.90;1.03;;;10.70;99.90;;;;;;5023059;28;20990;-66
2022/09/28 05:18:59;;;;;;;2.00;1.70;;;10.40;99.90;;;;;;5018442;28;20175;-75
2022/09/28 05:21:25;;;;;;;1.80;1.38;;;10.80;99.90;;;;;;5028340;28;20186;-69
2022/09/28 05:23:51;;;;;;;2.22;1.10;;;11.10;99.90;;;;;;5021510;28;20274;-65
2022/09/28 05:26:17;;;;;;;1.67;1.27;;;11.10;99.90;;;;;;5026983;28;20239;-70
2022/09/28 05:28:43;;;;;;;2.70;1.50;;;11.00;99.90;;;;;;5027877;28;20690;-69
2022/09/28 05:31:09;;;;;;;1.85;1.40;;;10.70;99.90;;;;;;5021535;28;20442;-69
2022/09/28 05:33:35;;;;;;;1.30;1.07;;;11.00;99.90;;;;;;5022531;28;20693;-69
2022/09/28 05:36:01;;;;;;;1.48;1.17;;;10.90;99.90;;;;;;5021278;28;20458;-63
2022/09/28 05:38:27;;;;;;;4.82;1.25;;;10.70;99.90;;;;;;5025073;28;20266;-68
2022/09/28 05:40:53;;;;;;;2.10;1.20;;;11.00;99.90;;;;;;5018096;28;20277;-69
2022/09/28 05:43:19;;;;;;;1.97;1.30;;;10.90;99.90;;;;;;5027023;28;20476;-68
2022/09/28 05:45:44;;;;;;;2.50;1.20;;;11.10;99.90;;;;;;5019723;28;20625;-68
2022/09/28 05:48:10;;;;;;;2.47;1.30;;;11.00;99.90;;;;;;5024332;28;20183;-70
2022/09/28 05:50:35;;;;;;;1.27;0.90;;;10.90;99.90;;;;;;5021612;28;20226;-70
2022/09/28 05:53:04;;;;;;;1.93;1.03;;;10.90;99.90;;;;;;5021908;28;20285;-69
2022/09/28 05:55:31;;;;;;;3.10;1.15;;;10.80;99.90;;;;;;5025272;28;20207;-70
2022/09/28 05:58:01;;;;;;;2.65;2.30;;;10.90;99.90;;;;;;5026106;28;20195;-69
2022/09/28 06:00:28;;;;;;;3.35;2.75;;;11.10;99.90;;;;;;5027706;28;20215;-71
2022/09/28 06:03:03;;;;;;;2.78;1.30;;;11.00;99.90;;;;;;5023012;28;20193;-69
2022/09/28 06:05:31;;;;;;;1.48;1.38;;;10.80;99.90;;;;;;5015783;28;20299;-69
2022/09/28 06:07:58;;;;;;;1.40;1.30;;;10.80;99.90;;;;;;5024420;28;20192;-68
2022/09/28 06:10:26;;;;;;;1.83;1.13;;;10.90;99.90;;;;;;5024453;28;20207;-68
2022/09/28 06:12:53;;;;;;;1.70;1.60;;;10.80;99.90;;;;;;5023795;28;20197;-64
2022/09/28 06:15:20;;;;;;;2.28;1.27;;;10.80;99.90;;;;;;5018639;28;20218;-66
2022/09/28 06:17:46;;;;;;;3.60;1.73;;;11.10;99.90;;;;;;5015395;28;20229;-63
2022/09/28 06:20:11;;;;;;;1.63;1.33;;;11.20;99.90;;;;;;5017951;28;20183;-68
2022/09/28 06:22:37;;;;;;;3.13;1.33;;;11.00;99.90;;;;;;5018481;28;20191;-67
2022/09/28 06:25:05;;;;;;;1.52;1.42;;;10.90;99.90;;;;;;5019030;28;20243;-65
2022/09/28 06:27:32;;;;;;;1.55;1.45;;;10.80;99.90;;;;;;5033031;28;20262;-67
2022/09/28 06:29:59;;;;;;;2.55;2.35;;;10.80;99.90;;;;;;5040766;28;20197;-67
2022/09/28 06:32:28;;;;;;;2.67;1.88;;;11.00;99.90;;;;;;5026199;28;20193;-67
2022/09/28 06:34:53;;;;;;;2.58;1.80;;;11.00;99.90;;;;;;5019054;28;20214;-64
2022/09/28 06:37:19;;;;;;;2.60;2.40;;;10.90;99.90;;;;;;5026303;28;20180;-66
2022/09/28 06:39:45;;;;;;;3.40;3.00;;;10.90;99.90;;;;;;5028615;28;20199;-66
2022/09/28 06:42:10;;;;;;;3.50;2.33;;;11.20;99.90;;;;;;5041534;28;20197;-65
2022/09/28 06:44:36;;;;;;;1.73;1.43;;;11.10;99.90;;;;;;5020682;28;20779;-68
2022/09/28 06:47:02;;;;;;;1.63;1.53;;;11.10;99.90;;;;;;5020414;28;20200;-69
2022/09/28 06:49:29;;;;;;;2.10;1.90;;;11.10;99.90;;;;;;5032852;28;20292;-66
2022/09/28 06:51:55;;;;;;;3.05;1.88;;;11.30;99.90;;;;;;5028083;28;20447;-66
2022/09/28 06:54:24;;;;;;;3.10;1.80;;;11.10;99.90;;;;;;5024974;28;20216;-67
2022/09/28 06:56:54;;;;;;;2.08;1.70;;;11.30;99.90;;;;;;5037013;28;20184;-67
2022/09/28 06:59:19;;;;;;;4.03;2.72;;;11.50;99.90;;;;;;5032421;28;20185;-66
2022/09/28 07:01:45;;;;;;;4.90;2.57;;;11.50;99.90;;;;;;5020175;28;20634;-67
2022/09/28 07:04:11;;;;;;;5.07;2.20;;;11.60;99.90;;;;;;5033606;28;20194;-66
2022/09/28 07:06:37;;;;;;;1.80;1.67;;;11.30;99.90;;;;;;5014311;28;20669;-66
2022/09/28 07:09:05;;;;;;;3.58;2.50;;;11.60;99.90;;;;;;5032190;28;20614;-65
2022/09/28 07:11:40;;;;;;;2.47;2.08;;;11.60;99.90;;;;;;5017997;28;20274;-65
2022/09/28 07:14:06;;;;;;;2.20;2.00;;;11.40;99.90;;;;;;5025281;28;20210;-64
2022/09/28 07:16:31;;;;;;;4.40;2.80;;;11.40;99.90;;;;;;5017916;28;20201;-68
2022/09/28 07:18:57;;;;;;;4.40;3.73;;;11.60;99.90;;;;;;5026748;28;20189;-69
2022/09/28 07:21:22;;;;;;;2.67;1.90;;;11.40;99.90;;;;;;5031293;28;20254;-66
2022/09/28 07:23:48;;;;;;;3.80;2.90;;;11.30;99.90;;;;;;5016388;28;20184;-67
2022/09/28 07:26:14;;;;;;;2.75;2.45;;;11.30;99.90;;;;;;5028430;28;20205;-69
2022/09/28 07:28:41;;;;;;;2.97;1.98;;;11.60;99.90;;;;;;5034552;28;20188;-68
2022/09/28 07:31:08;;;;;;;5.75;3.03;;;11.50;99.90;;;;;;5032214;28;20235;-73
2022/09/28 07:33:34;;;;;;;4.07;2.55;;;11.40;99.90;;;;;;5033843;28;20207;-66
2022/09/28 07:36:01;;;;;;;4.13;2.23;;;11.60;99.90;;;;;;5028531;28;20689;-69
2022/09/28 07:38:28;;;;;;;2.80;2.25;;;11.70;99.90;;;;;;5037288;28;20182;-66
2022/09/28 07:41:10;;;;;;;2.20;2.00;;;11.80;99.90;;;;;;5018343;28;20197;-67
2022/09/28 07:43:38;;;;;;;2.20;1.92;;;12.00;99.90;;;;;;5023301;28;20197;-66
2022/09/28 07:46:08;;;;;;;2.20;2.03;;;11.80;99.90;;;;;;5013043;28;20225;-65
2022/09/28 07:48:35;;;;;;;2.55;2.20;;;12.10;99.90;;;;;;5021770;28;20217;-66
2022/09/28 07:51:01;;;;;;;2.83;2.00;;;11.80;99.90;;;;;;5030470;28;20233;-66
2022/09/28 07:53:27;;;;;;;2.70;1.90;;;11.90;99.90;;;;;;5021630;28;20217;-66
2022/09/28 07:55:53;;;;;;;8.40;2.50;;;12.00;99.90;;;;;;5029182;28;20220;-66
2022/09/28 07:58:19;;;;;;;4.15;2.42;;;12.10;99.90;;;;;;5020846;28;20178;-67
2022/09/28 08:00:47;;;;;;;3.20;2.20;;;12.60;99.90;;;;;;5028591;28;20191;-66
2022/09/28 08:03:14;;;;;;;3.05;2.33;;;12.30;99.90;;;;;;5029652;28;20444;-62
2022/09/28 08:05:41;;;;;;;4.88;3.40;;;12.40;99.90;;;;;;5023122;28;20582;-64
2022/09/28 08:08:07;;;;;;;2.90;2.30;;;12.40;99.90;;;;;;5016568;28;20182;-64
2022/09/28 08:10:33;;;;;;;2.90;1.67;;;12.40;99.90;;;;;;5035511;28;20195;-63
2022/09/28 08:13:02;;;;;;;2.53;2.33;;;12.60;99.90;;;;;;5026855;28;20196;-66
2022/09/28 08:15:28;;;;;;;3.08;2.65;;;12.50;99.90;;;;;;5021891;28;20216;-64
2022/09/28 08:17:54;;;;;;;5.35;4.45;;;12.80;99.90;;;;;;5023677;28;20239;-67
2022/09/28 08:23:10;;;;;;;2.08;1.80;;;13.00;99.90;;;;;;5020800;28;20184;-66
2022/09/28 08:25:36;;;;;;;3.38;2.00;;;13.10;99.90;;;;;;5021804;28;20228;-67
2022/09/28 08:28:02;;;;;;;3.33;2.13;;;13.10;99.90;;;;;;5018319;28;20656;-66
2022/09/28 08:30:30;;;;;;;3.35;1.90;;;13.20;99.90;;;;;;5030178;28;20207;-62
2022/09/28 08:32:56;;;;;;;2.53;2.30;;;13.10;99.90;;;;;;5021656;28;20175;-71
2022/09/28 08:35:24;;;;;;;1.77;1.60;;;13.50;99.90;;;;;;5035397;28;20217;-63
2022/09/28 08:37:53;;;;;;;2.60;2.30;;;13.50;99.90;;;;;;5028783;28;20437;-68
2022/09/28 08:40:24;;;;;;;2.30;2.00;;;13.60;99.90;;;;;;5027606;28;20186;-72
2022/09/28 08:42:57;;;;;;;4.43;2.45;;;13.30;99.90;;;;;;5022615;28;20197;-70
2022/09/28 08:45:29;;;;;;;2.03;1.88;;;13.70;99.90;;;;;;5019642;28;20217;-73
2022/09/28 08:51:34;;;;;;;4.00;1.80;;;13.80;99.90;;;;;;4987187;28;20183;-64
2022/09/28 08:54:22;;;;;;;1.73;1.63;;;13.60;99.90;;;;;;5029965;28;20226;-66
2022/09/28 08:56:54;;;;;;;1.98;1.70;;;13.70;99.90;;;;;;5021150;28;20209;-65
2022/09/28 08:59:34;;;;;;;2.83;2.08;;;13.70;99.90;;;;;;5029245;28;20242;-65
2022/09/28 09:02:02;;;;;;;1.80;1.70;;;13.60;99.90;;;;;;5020964;28;20174;-65
2022/09/28 09:04:31;;;;;;;2.45;1.73;;;13.80;99.90;;;;;;5018086;28;20191;-65
2022/09/28 09:07:12;;;;;;;3.28;2.40;;;13.50;99.90;;;;;;5036970;28;20185;-68
2022/09/28 09:10:12;;;;;;;4.03;2.33;;;13.50;99.90;;;;;;5029579;28;20186;-67
2022/09/28 09:12:53;;;;;;;2.05;1.80;;;13.40;99.90;;;;;;5032385;28;20222;-69
2022/09/28 09:15:18;;;;;;;1.95;1.70;;;13.60;99.90;;;;;;5018229;28;20284;-69
2022/09/28 09:18:22;;;;;;;3.73;3.33;;;13.70;99.90;;;;;;5023786;28;20643;-70
2022/09/28 09:21:01;;;;;;;2.47;1.95;;;13.70;99.90;;;;;;5021402;28;20184;-65
2022/09/28 09:23:37;;;;;;;2.40;1.90;;;13.70;99.90;;;;;;5030468;28;20684;-69
2022/09/28 09:26:19;;;;;;;4.38;2.05;;;14.20;99.90;;;;;;5022177;28;20205;-65
2022/09/28 09:29:02;;;;;;;3.10;2.10;;;13.80;99.90;;;;;;5023190;28;20186;-64
2022/09/28 09:31:41;;;;;;;2.30;2.10;;;13.80;99.90;;;;;;5027820;28;20216;-71
2022/09/28 09:34:18;;;;;;;3.80;2.40;;;13.70;99.90;;;;;;5027164;28;20649;-66
2022/09/28 09:37:03;;;;;;;8.65;7.75;;;14.00;99.90;;;;;;5022672;28;20191;-67
2022/09/28 09:39:38;;;;;;;5.75;2.35;;;13.80;99.90;;;;;;5021125;28;20270;-68
2022/09/28 09:42:39;;;;;;;2.97;2.42;;;14.20;99.90;;;;;;5028977;28;20209;-67
2022/09/28 09:45:25;;;;;;;3.47;2.20;;;14.00;99.90;;;;;;5008134;28;20635;-64
2022/09/28 09:48:08;;;;;;;2.08;1.88;;;13.90;99.90;;;;;;5018743;28;20202;-69
2022/09/28 09:50:43;;;;;;;4.25;2.30;;;13.90;99.90;;;;;;5035622;28;20205;-69
2022/09/28 09:53:24;;;;;;;5.13;2.70;;;14.00;99.90;;;;;;5024857;28;20185;-69
2022/09/28 09:55:56;;;;;;;4.38;2.00;;;13.70;99.90;;;;;;5019028;28;20207;-70
2022/09/28 09:58:44;;;;;;;2.30;2.10;;;14.00;99.90;;;;;;5022569;28;20754;-64
2022/09/28 10:01:13;;;;;;;2.70;2.10;;;14.00;99.90;;;;;;5014847;28;20186;-64
2022/09/28 10:03:42;;;;;;;2.10;1.95;;;14.30;99.90;;;;;;5031951;28;20662;-64
2022/09/28 10:06:42;;;;;;;3.80;2.40;;;14.50;99.90;;;;;;5014756;28;20210;-64
2022/09/28 10:09:21;;;;;;;2.13;1.90;;;14.50;99.90;;;;;;5015428;28;20193;-66
2022/09/28 10:11:49;;;;;;;2.72;2.10;;;14.30;99.90;;;;;;5027513;28;20193;-66
2022/09/28 10:14:21;;;;;;;3.55;2.53;;;14.40;99.90;;;;;;5029407;28;20206;-67
2022/09/28 10:16:50;;;;;;;3.42;3.13;;;14.30;99.90;;;;;;5026174;28;20179;-67
2022/09/28 10:19:19;;;;;;;3.88;3.10;;;14.70;99.90;;;;;;5032355;28;20182;-66
2022/09/28 10:21:52;;;;;;;2.92;2.40;;;14.70;99.90;;;;;;5033759;28;20237;-67
2022/09/28 10:24:31;;;;;;;3.08;2.88;;;14.90;99.90;;;;;;5024272;28;20763;-68
2022/09/28 10:27:15;;;;;;;3.10;2.80;;;14.90;99.90;;;;;;5029821;28;20194;-68
2022/09/28 10:30:22;;;;;;;2.10;2.00;;;15.00;99.90;;;;;;5027101;28;20293;-67
2022/09/28 10:32:51;;;;;;;3.10;2.33;;;14.80;99.90;;;;;;5017778;28;20240;-68
2022/09/28 10:35:41;;;;;;;8.77;8.02;;;14.90;99.90;;;;;;5017336;28;20206;-71
2022/09/28 10:38:15;;;;;;;4.78;2.95;;;15.10;99.90;;;;;;5033838;28;20661;-71
2022/09/28 10:40:53;;;;;;;3.10;1.95;;;14.80;99.90;;;;;;5042547;28;20663;-69
2022/09/28 10:43:33;;;;;;;3.78;2.80;;;14.60;99.90;;;;;;5018670;28;20887;-70
2022/09/28 10:46:06;;;;;;;2.33;2.10;;;15.00;99.90;;;;;;5032034;28;20218;-72
2022/09/28 10:49:06;;;;;;;3.53;3.22;;;14.90;99.90;;;;;;5041125;28;20233;-69
2022/09/28 10:51:57;;;;;;;3.75;2.25;;;14.80;99.70;;;;;;5032064;28;20195;-70
2022/09/28 10:54:28;;;;;;;1.80;1.55;;;14.90;98.40;;;;;;5025416;28;20220;-66
2022/09/28 10:56:57;;;;;;;3.58;2.88;;;15.00;98.80;;;;;;5034925;28;20183;-65
2022/09/28 10:59:28;;;;;;;2.78;2.58;;;14.90;99.90;;;;;;5028913;28;20260;-67
2022/09/28 11:02:00;;;;;;;5.05;2.08;;;15.00;99.90;;;;;;5023153;28;20186;-66
2022/09/28 11:04:33;;;;;;;2.67;2.35;;;14.90;99.40;;;;;;5034490;28;20678;-66
2022/09/28 11:07:00;;;;;;;2.75;2.22;;;14.70;99.70;;;;;;5037073;28;20205;-69
2022/09/28 11:09:33;;;;;;;3.03;2.80;;;15.30;99.30;;;;;;5022306;28;20191;-65
2022/09/28 11:12:02;;;;;;;8.07;6.85;;;15.00;98.90;;;;;;5034554;28;20277;-64
2022/09/28 11:14:36;;;;;;;4.10;2.35;;;15.10;98.10;;;;;;5026033;28;20206;-65
2022/09/28 11:17:25;;;;;;;5.63;2.30;;;15.00;98.40;;;;;;5029654;28;20596;-65
2022/09/28 11:19:51;;;;;;;3.50;3.20;;;15.10;98.80;;;;;;5022013;28;20191;-65
2022/09/28 11:22:36;;;;;;;4.57;2.95;;;15.20;99.20;;;;;;5018031;28;20220;-65
2022/09/28 11:25:15;;;;;;;3.72;1.70;;;15.30;99.50;;;;;;5016840;28;20205;-65
2022/09/28 11:28:03;;;;;;;2.70;2.05;;;15.40;97.50;;;;;;5023158;28;20194;-67
2022/09/28 11:30:39;;;;;;;3.70;2.08;;;15.20;97.40;;;;;;5025120;28;20190;-64
2022/09/28 11:33:23;;;;;;;2.92;2.17;;;15.20;97.10;;;;;;5022923;28;20996;-65
2022/09/28 11:35:59;;;;;;;2.60;1.92;;;15.00;97.30;;;;;;5016714;28;20202;-64
2022/09/28 11:38:49;;;;;;;3.80;2.85;;;15.20;97.70;;;;;;5024317;28;20552;-64
2022/09/28 11:41:29;;;;;;;4.00;2.30;;;15.60;97.60;;;;;;5017029;28;20249;-63
2022/09/28 11:44:04;;;;;;;3.90;2.72;;;15.70;97.70;;;;;;5027175;28;20735;-62
2022/09/28 11:47:02;;;;;;;2.42;1.55;;;15.60;97.50;;;;;;5029718;28;20217;-65
2022/09/28 11:49:45;;;;;;;2.60;1.80;;;15.20;97.00;;;;;;5024893;28;20186;-64
2022/09/28 11:52:26;;;;;;;2.10;1.90;;;15.20;96.20;;;;;;5027096;28;20551;-69
2022/09/28 11:55:04;;;;;;;3.60;1.65;;;15.40;95.60;;;;;;5025652;28;20221;-75
2022/09/28 11:57:36;;;;;;;4.75;1.98;;;15.30;95.40;;;;;;5030928;28;20185;-71
2022/09/28 12:00:18;;;;;;;2.72;1.50;;;15.50;96.40;;;;;;5019455;28;20182;-67
2022/09/28 12:03:04;;;;;;;1.63;1.52;;;15.30;96.00;;;;;;5023595;28;20190;-69
2022/09/28 12:05:33;;;;;;;2.97;1.80;;;15.30;96.30;;;;;;5028982;28;20559;-68
2022/09/28 12:08:16;;;;;;;3.13;2.80;;;15.10;95.60;;;;;;5033649;28;20179;-68
2022/09/28 12:10:51;;;;;;;2.70;1.70;;;15.10;95.90;;;;;;5023118;28;20209;-62
2022/09/28 12:13:21;;;;;;;2.90;2.42;;;15.50;95.60;;;;;;5022274;28;20189;-68
2022/09/28 12:15:58;;;;;;;1.40;1.30;;;15.20;95.20;;;;;;5032769;28;20198;-65
2022/09/28 12:18:52;;;;;;;2.25;1.85;;;15.40;95.00;;;;;;5027494;28;20206;-66
2022/09/28 12:21:21;;;;;;;3.22;2.03;;;15.60;94.80;;;;;;5020780;28;20224;-64
2022/09/28 12:23:49;;;;;;;1.30;1.20;;;15.60;94.50;;;;;;5021882;28;20251;-62
2022/09/28 12:26:38;;;;;;;3.05;2.03;;;15.60;94.20;;;;;;5032635;28;20256;-63
2022/09/28 12:29:42;;;;;;;5.18;1.40;;;15.70;94.10;;;;;;5019225;28;20192;-69
2022/09/28 12:32:25;;;;;;;1.30;1.20;;;15.90;92.30;;;;;;4996121;28;20197;-67
2022/09/28 12:34:51;;;;;;;2.35;1.30;;;16.10;91.90;;;;;;5022022;28;20240;-66
2022/09/28 12:37:34;;;;;;;1.40;1.30;;;15.90;91.60;;;;;;5025637;28;20690;-68
2022/09/28 12:40:19;;;;;;;1.73;1.48;;;15.70;91.20;;;;;;5023762;28;20202;-70
2022/09/28 12:43:00;;;;;;;2.42;1.48;;;15.90;91.60;;;;;;5022637;28;20232;-67
2022/09/28 12:45:34;;;;;;;1.75;1.63;;;15.80;91.70;;;;;;5022615;28;20209;-64
2022/09/28 12:48:12;;;;;;;2.30;1.70;;;15.90;91.30;;;;;;5031553;28;20676;-66
2022/09/28 12:50:49;;;;;;;1.70;1.35;;;15.80;91.00;;;;;;5027625;28;20562;-65
2022/09/28 12:53:37;;;;;;;1.60;1.33;;;16.20;91.20;;;;;;5021822;28;20600;-63
2022/09/28 12:56:05;;;;;;;1.35;1.20;;;16.10;91.60;;;;;;5016445;28;20848;-69
2022/09/28 12:58:36;;;;;;;2.50;1.98;;;15.70;89.80;;;;;;5015114;28;20189;-69
2022/09/28 13:01:05;;;;;;;1.52;1.38;;;16.10;90.10;;;;;;5023507;28;20311;-62
2022/09/28 13:03:46;;;;;;;2.92;1.40;;;15.90;90.40;;;;;;5017306;28;20273;-68
2022/09/28 13:06:33;;;;;;;3.88;1.33;;;16.20;91.00;;;;;;5015450;28;20303;-65
2022/09/28 13:09:15;;;;;;;2.10;1.30;;;16.00;90.70;;;;;;5022041;28;20190;-63
2022/09/28 13:11:53;;;;;;;3.15;1.63;;;15.90;89.10;;;;;;5028105;28;20198;-64
2022/09/28 13:14:22;;;;;;;3.47;1.90;;;15.90;90.20;;;;;;5025588;28;20308;-63
2022/09/28 13:17:00;;;;;;;1.98;1.60;;;16.10;91.30;;;;;;5032898;28;20219;-64
2022/09/28 13:20:00;;;;;;;2.97;1.35;;;15.90;89.60;;;;;;5030968;28;20173;-65
2022/09/28 13:22:55;;;;;;;2.03;1.83;;;16.10;89.20;;;;;;5020895;28;20183;-69
2022/09/28 13:25:25;;;;;;;2.70;2.03;;;16.10;90.50;;;;;;5020237;28;20300;-68